createdAt,value
2022-08-16T00:03:13.211Z,16.60
2022-08-16T00:08:30.631Z,16.80
2022-08-16T00:13:32.657Z,16.60
2022-08-16T00:18:42.708Z,16.80
2022-08-16T00:23:50.400Z,16.80
2022-08-16T00:28:59.212Z,16.90
2022-08-16T00:34:07.266Z,16.60
2022-08-16T00:39:17.787Z,16.60
2022-08-16T00:44:32.629Z,16.60
2022-08-16T00:49:39.644Z,16.60
2022-08-16T00:54:46.854Z,16.50
2022-08-16T00:59:59.522Z,16.60
2022-08-16T01:05:10.738Z,16.50
2022-08-16T01:10:16.719Z,16.60
2022-08-16T01:15:24.346Z,16.60
2022-08-16T01:20:34.777Z,16.70
2022-08-16T01:26:00.208Z,16.70
2022-08-16T01:30:59.062Z,16.80
2022-08-16T01:36:12.369Z,17.00
2022-08-16T01:41:23.719Z,16.90
2022-08-16T01:46:40.022Z,17.10
2022-08-16T01:51:49.814Z,17.20
2022-08-16T01:56:57.972Z,17.20
2022-08-16T02:02:27.408Z,17.20
2022-08-16T02:07:23.730Z,17.10
2022-08-16T02:12:50.339Z,17.10
2022-08-16T02:17:40.526Z,17.10
2022-08-16T02:22:48.570Z,17.10
2022-08-16T02:27:56.636Z,17.10
2022-08-16T02:33:05.893Z,17.10
2022-08-16T02:38:13.389Z,17.10
2022-08-16T02:43:21.699Z,17.20
2022-08-16T02:48:31.372Z,17.20
2022-08-16T02:53:43.277Z,17.30
2022-08-16T02:58:55.145Z,17.40
2022-08-16T03:04:39.828Z,17.20
2022-08-16T03:09:14.795Z,17.50
2022-08-16T03:14:24.677Z,17.50
2022-08-16T03:19:48.134Z,17.50
2022-08-16T03:24:44.697Z,17.40
2022-08-16T03:29:54.807Z,17.20
2022-08-16T03:34:59.869Z,17.40
2022-08-16T03:40:10.291Z,17.10
2022-08-16T03:45:18.454Z,17.10
2022-08-16T03:50:26.988Z,17.30
2022-08-16T03:55:45.108Z,17.20
2022-08-16T04:00:42.621Z,17.10
2022-08-16T04:05:54.154Z,17.20
2022-08-16T04:11:03.605Z,17.20
2022-08-16T04:16:27.082Z,17.30
2022-08-16T04:21:29.190Z,17.30
2022-08-16T04:26:32.295Z,17.30
2022-08-16T04:31:40.235Z,17.30
2022-08-16T04:36:49.093Z,17.50
2022-08-16T04:41:57.808Z,17.40
2022-08-16T04:47:21.453Z,17.40
2022-08-16T04:52:34.816Z,17.60
2022-08-16T04:57:23.919Z,17.70
2022-08-16T05:02:42.182Z,17.70
2022-08-16T05:07:59.403Z,17.80
2022-08-16T05:12:50.929Z,17.90
2022-08-16T05:18:00.063Z,17.90
2022-08-16T05:23:09.803Z,18.00
2022-08-16T05:28:19.616Z,18.20
2022-08-16T05:33:27.314Z,18.40
2022-08-16T05:38:38.919Z,18.50
2022-08-16T05:43:46.741Z,18.40
2022-08-16T05:48:55.066Z,18.40
2022-08-16T05:54:01.150Z,18.40
2022-08-16T05:59:09.599Z,18.50
2022-08-16T06:04:36.350Z,18.40
2022-08-16T06:09:42.559Z,18.60
2022-08-16T06:14:40.002Z,18.80
2022-08-16T06:19:46.797Z,18.60
2022-08-16T06:24:56.214Z,18.60
2022-08-16T06:30:03.365Z,18.90
2022-08-16T06:35:12.330Z,19.00
2022-08-16T06:40:20.265Z,19.20
2022-08-16T06:45:29.334Z,19.40
2022-08-16T06:50:36.518Z,19.60
2022-08-16T06:55:45.779Z,19.90
2022-08-16T07:00:54.881Z,20.30
2022-08-16T07:06:03.475Z,20.30
2022-08-16T07:11:11.943Z,20.50
2022-08-16T07:16:21.625Z,20.80
2022-08-16T07:21:42.230Z,21.20
2022-08-16T07:26:38.630Z,21.30
2022-08-16T07:31:45.517Z,21.10
2022-08-16T07:36:57.829Z,21.50
2022-08-16T07:42:00.772Z,21.40
2022-08-16T07:47:11.252Z,21.50
2022-08-16T07:52:20.690Z,21.60
2022-08-16T07:57:27.736Z,21.50
2022-08-16T08:02:37.532Z,21.70
2022-08-16T08:07:45.353Z,21.70
2022-08-16T08:12:55.830Z,21.70
2022-08-16T08:18:29.714Z,22.30
2022-08-16T08:23:19.104Z,22.30
2022-08-16T08:28:27.555Z,21.80
2022-08-16T08:33:36.074Z,21.60
2022-08-16T08:38:45.883Z,21.70
2022-08-16T08:43:53.028Z,22.90
2022-08-16T08:49:02.107Z,23.30
2022-08-16T08:54:10.079Z,24.30
2022-08-16T08:59:20.515Z,24.20
2022-08-16T09:04:26.773Z,24.60
2022-08-16T09:09:34.203Z,24.00
2022-08-16T09:14:49.535Z,24.20
2022-08-16T09:19:55.231Z,23.40
2022-08-16T09:25:11.343Z,23.10
2022-08-16T09:30:34.612Z,23.10
2022-08-16T09:35:18.639Z,23.20
2022-08-16T09:40:32.352Z,22.80
2022-08-16T09:45:36.567Z,22.90
2022-08-16T09:50:46.982Z,23.30
2022-08-16T09:55:56.993Z,23.30
2022-08-16T10:01:05.005Z,24.60
2022-08-16T10:06:12.002Z,24.50
2022-08-16T10:11:49.915Z,24.30
2022-08-16T10:16:48.847Z,24.00
2022-08-16T10:21:56.079Z,24.10
2022-08-16T10:27:21.711Z,24.10
2022-08-16T10:32:11.839Z,25.10
2022-08-16T10:37:32.622Z,25.80
2022-08-16T10:42:30.567Z,26.50
2022-08-16T10:47:40.365Z,26.30
2022-08-16T10:52:46.311Z,25.30
2022-08-16T10:58:01.479Z,25.50
2022-08-16T11:08:35.140Z,25.00
2022-08-16T11:18:54.880Z,25.00
2022-08-16T11:23:57.860Z,24.80
2022-08-16T11:29:17.546Z,24.90
2022-08-16T11:34:12.317Z,25.60
2022-08-16T11:39:21.943Z,26.30
2022-08-16T11:44:52.976Z,26.00
2022-08-16T11:49:39.090Z,26.80
2022-08-16T11:54:53.788Z,27.10
2022-08-16T11:59:57.666Z,27.70
2022-08-16T12:05:04.599Z,27.70
2022-08-16T12:10:18.954Z,27.30
2022-08-16T12:15:28.841Z,27.10
2022-08-16T12:20:41.325Z,27.00
2022-08-16T12:25:50.951Z,27.80
2022-08-16T12:30:59.824Z,27.20
2022-08-16T12:36:09.835Z,26.70
2022-08-16T12:41:25.081Z,26.30
2022-08-16T12:46:31.180Z,26.40
2022-08-16T12:51:58.208Z,26.90
2022-08-16T12:56:51.615Z,27.40
2022-08-16T13:02:00.140Z,26.60
2022-08-16T13:07:08.830Z,27.10
2022-08-16T13:12:21.046Z,26.70
2022-08-16T13:17:29.897Z,26.90
2022-08-16T13:22:50.193Z,27.10
2022-08-16T13:28:02.792Z,27.80
2022-08-16T13:33:10.455Z,27.30
2022-08-16T13:38:24.266Z,26.90
2022-08-16T13:43:33.384Z,27.80
2022-08-16T13:48:44.214Z,27.80
2022-08-16T13:54:02.668Z,27.20
2022-08-16T13:59:01.671Z,27.30
2022-08-16T14:04:10.029Z,27.30
2022-08-16T14:09:21.160Z,28.00
2022-08-16T14:14:30.350Z,27.70
2022-08-16T14:19:45.083Z,27.30
2022-08-16T14:24:54.907Z,27.60
2022-08-16T14:30:06.374Z,27.50
2022-08-16T14:35:18.531Z,27.90
2022-08-16T14:40:29.036Z,27.80
2022-08-16T14:45:37.959Z,27.80
2022-08-16T14:50:47.233Z,27.80
2022-08-16T14:55:56.349Z,27.70
2022-08-16T15:01:04.450Z,27.60
2022-08-16T15:06:13.172Z,27.50
2022-08-16T15:11:23.194Z,27.50
2022-08-16T15:16:29.858Z,27.30
2022-08-16T15:21:39.535Z,27.70
2022-08-16T15:26:47.766Z,27.30
2022-08-16T15:32:00.939Z,27.30
2022-08-16T15:37:05.976Z,27.20
2022-08-16T15:42:27.203Z,27.00
2022-08-16T15:47:27.623Z,27.00
2022-08-16T15:52:39.199Z,27.00
2022-08-16T15:57:46.430Z,26.70
2022-08-16T16:03:12.567Z,27.10
2022-08-16T16:08:24.635Z,27.30
2022-08-16T16:13:33.766Z,26.60
2022-08-16T16:18:40.545Z,26.40
2022-08-16T16:23:54.773Z,26.40
2022-08-16T16:29:07.616Z,26.20
2022-08-16T16:34:08.232Z,26.30
2022-08-16T16:39:18.473Z,26.10
2022-08-16T16:44:33.472Z,26.10
2022-08-16T16:49:33.999Z,26.10
2022-08-16T16:54:44.071Z,25.70
2022-08-16T16:59:55.563Z,25.80
2022-08-16T17:05:04.413Z,25.50
2022-08-16T17:10:14.987Z,25.20
2022-08-16T17:15:25.511Z,25.00
2022-08-16T17:20:33.994Z,25.00
2022-08-16T17:25:44.639Z,24.80
2022-08-16T17:30:53.535Z,24.70
2022-08-16T17:36:01.377Z,24.60
2022-08-16T17:41:10.784Z,24.50
2022-08-16T17:46:51.579Z,24.40
2022-08-16T17:51:30.275Z,24.30
2022-08-16T17:56:37.535Z,24.10
2022-08-16T18:01:44.299Z,23.90
2022-08-16T18:06:53.674Z,23.70
2022-08-16T18:12:01.088Z,23.60
2022-08-16T18:17:07.915Z,23.40
2022-08-16T18:22:19.030Z,23.40
2022-08-16T18:27:28.639Z,23.30
2022-08-16T18:32:35.976Z,23.10
2022-08-16T18:37:42.784Z,22.60
2022-08-16T18:43:03.549Z,22.40
2022-08-16T18:48:13.259Z,22.40
2022-08-16T18:53:25.374Z,22.50
2022-08-16T18:58:36.070Z,22.20
2022-08-16T19:03:45.147Z,22.20
2022-08-16T19:08:51.956Z,22.10
2022-08-16T19:13:59.437Z,21.90
2022-08-16T19:19:06.540Z,21.80
2022-08-16T19:24:18.152Z,21.80
2022-08-16T19:29:24.452Z,21.80
2022-08-16T19:34:33.989Z,21.80
2022-08-16T19:39:43.608Z,21.70
2022-08-16T19:44:55.279Z,21.70
2022-08-16T19:50:03.136Z,21.40
2022-08-16T19:55:20.647Z,21.30
2022-08-16T20:00:35.230Z,21.30
2022-08-16T20:05:36.867Z,21.40
2022-08-16T20:10:47.746Z,21.50
2022-08-16T20:15:54.421Z,21.40
2022-08-16T20:21:02.165Z,21.30
2022-08-16T20:26:20.602Z,20.90
2022-08-16T20:31:28.887Z,21.00
2022-08-16T20:36:35.665Z,20.80
2022-08-16T20:41:45.417Z,20.90
2022-08-16T20:46:52.986Z,20.80
2022-08-16T20:51:59.996Z,20.80
2022-08-16T20:57:10.475Z,20.80
2022-08-16T21:02:21.774Z,20.70
2022-08-16T21:07:29.124Z,20.50
2022-08-16T21:12:37.953Z,20.50
2022-08-16T21:17:46.392Z,20.40
2022-08-16T21:23:04.491Z,20.60
2022-08-16T21:28:40.103Z,20.30
2022-08-16T21:33:26.625Z,20.20
2022-08-16T21:38:36.448Z,20.20
2022-08-16T21:43:45.616Z,20.30
2022-08-16T21:48:55.817Z,20.30
2022-08-16T21:54:04.921Z,20.00
2022-08-16T21:59:15.281Z,20.30
2022-08-16T22:04:36.532Z,20.10
2022-08-16T22:09:32.854Z,20.10
2022-08-16T22:14:40.010Z,20.20
2022-08-16T22:19:46.796Z,20.10
2022-08-16T22:24:55.468Z,20.10
2022-08-16T22:30:03.083Z,19.90
2022-08-16T22:35:16.847Z,19.80
2022-08-16T22:40:27.501Z,19.90
2022-08-16T22:45:37.089Z,19.90
2022-08-16T22:50:47.515Z,19.80
2022-08-16T22:55:59.421Z,19.60
2022-08-16T23:01:11.429Z,19.70
2022-08-16T23:06:19.975Z,19.60
2022-08-16T23:11:28.080Z,19.60
2022-08-16T23:16:38.411Z,19.50
2022-08-16T23:21:49.872Z,19.50
2022-08-16T23:26:58.254Z,19.50
2022-08-16T23:32:13.578Z,19.70
2022-08-16T23:37:22.622Z,19.40
2022-08-16T23:42:52.582Z,19.40
2022-08-16T23:47:41.531Z,19.30
2022-08-16T23:53:18.459Z,19.10
2022-08-16T23:58:32.690Z,19.30
